Time;durP1;ratioP1;P1;durP2;ratioP2;P2;SDS_P1;SDS_P2;PMS_P1;PMS_P2;Temp;Humidity;BMP_temperature;BMP_pressure;BME280_temperature;BME280_humidity;BME280_pressure;Samples;Min_cycle;Max_cycle;Signal;HPM_P1;HPM_P2
2022/07/12 00:00:33;;;;;;;4.53;2.10;;;;;;;15.77;85.33;102153.81;5041403;28;20029;-73
2022/07/12 00:02:58;;;;;;;1.73;1.20;;;;;;;15.72;85.67;102156.84;5061589;28;20033;-73
2022/07/12 00:05:23;;;;;;;1.63;1.23;;;;;;;15.73;85.45;102155.06;5045478;28;20040;-73
2022/07/12 00:07:49;;;;;;;3.10;1.50;;;;;;;15.74;85.21;102160.16;5048166;28;20148;-73
2022/07/12 00:10:14;;;;;;;3.08;1.80;;;;;;;15.76;85.18;102165.22;5049266;28;20032;-73
2022/07/12 00:12:40;;;;;;;4.47;1.67;;;;;;;15.77;85.02;102159.84;5062994;28;20062;-73
2022/07/12 00:15:06;;;;;;;2.35;1.40;;;;;;;15.77;84.94;102161.66;5032746;28;20040;-74
2022/07/12 00:17:32;;;;;;;1.75;1.15;;;;;;;15.74;84.43;102160.16;5046499;28;20029;-73
2022/07/12 00:19:57;;;;;;;2.80;1.52;;;;;;;15.61;84.76;102164.97;5044461;28;20059;-73
2022/07/12 00:22:23;;;;;;;2.47;1.23;;;;;;;15.51;85.21;102162.47;5045305;28;20768;-73
2022/07/12 00:24:49;;;;;;;4.72;1.45;;;;;;;15.46;85.27;102167.34;5031295;28;20040;-73
2022/07/12 00:27:14;;;;;;;3.85;1.40;;;;;;;15.44;85.31;102156.22;5032680;28;20086;-73
2022/07/12 00:29:40;;;;;;;2.78;1.58;;;;;;;15.45;85.38;102157.88;5042701;28;20056;-73
2022/07/12 00:32:07;;;;;;;2.55;1.27;;;;;;;15.48;85.41;102154.13;5064598;28;20688;-74
2022/07/12 00:34:33;;;;;;;3.83;1.70;;;;;;;15.47;85.33;102155.09;5063197;28;20040;-73
2022/07/12 00:36:58;;;;;;;5.57;1.80;;;;;;;15.43;85.49;102156.41;5045963;28;20037;-74
2022/07/12 00:39:24;;;;;;;1.83;1.50;;;;;;;15.40;85.82;102151.47;5047109;28;20090;-74
2022/07/12 00:41:49;;;;;;;2.20;1.70;;;;;;;15.38;85.88;102149.00;5064941;28;20063;-74
2022/07/12 00:44:15;;;;;;;2.63;1.30;;;;;;;15.37;85.66;102148.19;5065231;28;20033;-74
2022/07/12 00:46:40;;;;;;;3.05;1.90;;;;;;;15.37;85.53;102144.78;5069812;28;20025;-74
2022/07/12 00:49:06;;;;;;;2.08;1.48;;;;;;;15.38;85.29;102131.53;5053955;28;20480;-74
2022/07/12 00:51:32;;;;;;;4.25;2.42;;;;;;;15.37;85.32;102122.06;5050258;28;20046;-75
2022/07/12 00:53:59;;;;;;;4.45;1.60;;;;;;;15.35;85.05;102129.25;5037185;28;20067;-74
2022/07/12 00:56:25;;;;;;;2.97;1.38;;;;;;;15.26;85.06;102126.75;5048246;28;20541;-74
2022/07/12 00:58:51;;;;;;;2.95;1.23;;;;;;;15.18;85.47;102127.47;5033065;28;20016;-74
2022/07/12 01:01:17;;;;;;;1.83;1.40;;;;;;;15.14;85.44;102127.00;5067475;28;20726;-75
2022/07/12 01:03:42;;;;;;;2.28;1.42;;;;;;;15.15;85.56;102127.81;5044719;28;20028;-75
2022/07/12 01:06:08;;;;;;;3.38;1.80;;;;;;;15.16;85.28;102121.59;5060362;28;20032;-75
2022/07/12 01:08:34;;;;;;;3.10;1.75;;;;;;;15.15;85.12;102130.44;5066256;28;20086;-75
2022/07/12 01:11:01;;;;;;;3.20;1.73;;;;;;;15.13;85.35;102129.75;5063112;28;20036;-74
2022/07/12 01:13:27;;;;;;;2.35;1.50;;;;;;;15.10;85.54;102122.22;5050756;28;20028;-74
2022/07/12 01:15:53;;;;;;;2.55;1.40;;;;;;;14.99;85.63;102126.75;5048992;28;20131;-75
2022/07/12 01:18:19;;;;;;;4.70;1.67;;;;;;;14.87;85.92;102122.72;5046325;28;20032;-74
2022/07/12 01:20:45;;;;;;;4.15;1.83;;;;;;;14.75;86.29;102132.59;5045028;28;20123;-75
2022/07/12 01:23:14;;;;;;;3.67;1.33;;;;;;;14.70;86.78;102123.56;5033178;28;20112;-75
2022/07/12 01:25:39;;;;;;;2.70;1.67;;;;;;;14.68;86.98;102109.84;5047163;28;20037;-75
2022/07/12 01:28:05;;;;;;;3.50;1.40;;;;;;;14.72;86.83;102132.06;5032611;28;20067;-75
2022/07/12 01:30:31;;;;;;;4.45;1.13;;;;;;;14.75;86.31;102126.56;5047640;28;20020;-75
2022/07/12 01:32:58;;;;;;;4.85;1.63;;;;;;;14.77;85.99;102127.22;5031618;28;20083;-75
2022/07/12 01:35:24;;;;;;;3.03;1.40;;;;;;;14.79;85.97;102125.28;5046567;28;20035;-75
2022/07/12 01:37:50;;;;;;;2.00;1.33;;;;;;;14.79;85.60;102126.09;5068764;28;20100;-75
2022/07/12 01:40:16;;;;;;;2.67;1.60;;;;;;;14.78;85.55;102136.69;5030602;28;20685;-75
2022/07/12 01:42:44;;;;;;;3.28;1.30;;;;;;;14.77;85.31;102130.66;5068027;28;20043;-75
2022/07/12 01:45:10;;;;;;;4.03;1.63;;;;;;;14.76;85.32;102141.25;5064193;28;20032;-75
2022/07/12 01:47:35;;;;;;;2.30;1.40;;;;;;;14.74;85.28;102141.38;5043981;28;20037;-75
2022/07/12 01:50:03;;;;;;;2.45;1.35;;;;;;;14.75;85.46;102142.22;5060939;28;20028;-76
2022/07/12 01:52:29;;;;;;;3.92;1.80;;;;;;;14.74;85.73;102138.78;5044481;28;20034;-75
2022/07/12 01:54:55;;;;;;;2.53;1.50;;;;;;;14.75;85.81;102147.44;5050570;28;20039;-76
2022/07/12 01:57:21;;;;;;;4.85;1.40;;;;;;;14.73;86.21;102149.34;5047153;28;20029;-74
2022/07/12 01:59:47;;;;;;;2.13;1.70;;;;;;;14.71;86.29;102149.53;5064322;28;20024;-75
2022/07/12 02:02:12;;;;;;;1.98;1.40;;;;;;;14.69;85.96;102153.25;5033382;28;20477;-75
2022/07/12 02:04:37;;;;;;;1.90;1.42;;;;;;;14.61;85.74;102148.78;5043971;28;20036;-75
2022/07/12 02:07:04;;;;;;;3.35;1.40;;;;;;;14.46;86.10;102148.44;5046943;28;20033;-75
2022/07/12 02:09:30;;;;;;;2.20;1.40;;;;;;;14.38;86.34;102157.03;5060870;28;20028;-75
2022/07/12 02:11:56;;;;;;;3.00;1.50;;;;;;;14.34;86.23;102157.47;5050598;28;20500;-76
2022/07/12 02:14:21;;;;;;;3.05;1.50;;;;;;;14.35;86.28;102159.94;5030118;28;20606;-75
2022/07/12 02:16:47;;;;;;;2.38;1.40;;;;;;;14.35;86.56;102164.31;5046962;28;20082;-75
2022/07/12 02:19:13;;;;;;;3.90;1.48;;;;;;;14.36;86.48;102158.16;5031122;28;20462;-75
2022/07/12 02:21:39;;;;;;;2.80;1.60;;;;;;;14.28;86.38;102161.50;5065645;28;20603;-76
2022/07/12 02:24:05;;;;;;;1.40;1.17;;;;;;;14.15;86.54;102163.63;5045371;28;20028;-75
2022/07/12 02:26:33;;;;;;;1.83;1.40;;;;;;;13.97;86.86;102166.19;5032900;28;20036;-74
2022/07/12 02:28:59;;;;;;;1.92;1.00;;;;;;;13.86;87.39;102161.16;5065136;28;20420;-74
2022/07/12 02:31:25;;;;;;;1.38;1.08;;;;;;;13.78;87.87;102164.50;5046083;28;20037;-76
2022/07/12 02:33:51;;;;;;;1.58;0.90;;;;;;;13.74;88.42;102169.19;5063051;28;20032;-75
2022/07/12 02:36:17;;;;;;;1.35;0.70;;;;;;;13.72;88.59;102171.09;5044853;28;20020;-74
2022/07/12 02:38:42;;;;;;;2.42;0.60;;;;;;;13.68;88.93;102166.34;5044800;28;20044;-75
2022/07/12 02:41:08;;;;;;;0.70;0.60;;;;;;;13.62;89.09;102165.13;5043820;28;20481;-75
2022/07/12 02:43:34;;;;;;;0.77;0.40;;;;;;;13.58;89.01;102159.38;5062464;28;20043;-75
2022/07/12 02:46:04;;;;;;;1.15;0.98;;;;;;;13.53;89.70;102160.75;5067329;28;20035;-73
2022/07/12 02:48:30;;;;;;;1.10;1.00;;;;;;;13.49;90.14;102162.00;5061737;28;20059;-76
2022/07/12 02:50:55;;;;;;;1.33;0.98;;;;;;;13.48;90.30;102162.97;5048064;28;20020;-75
2022/07/12 02:53:22;;;;;;;3.08;1.00;;;;;;;13.47;90.61;102172.56;5062093;28;20154;-74
2022/07/12 02:55:47;;;;;;;2.00;1.08;;;;;;;13.52;90.45;102161.72;5045506;28;20694;-74
2022/07/12 02:58:13;;;;;;;1.25;1.10;;;;;;;13.57;90.35;102162.13;5046486;28;20028;-75
2022/07/12 03:00:38;;;;;;;1.17;0.93;;;;;;;13.63;89.87;102162.34;5050534;28;20036;-75
2022/07/12 03:03:06;;;;;;;2.33;1.25;;;;;;;13.69;89.24;102166.16;5066546;28;20492;-74
2022/07/12 03:05:32;;;;;;;1.48;1.10;;;;;;;13.72;88.46;102158.06;5033200;28;20024;-74
2022/07/12 03:07:57;;;;;;;8.02;1.48;;;;;;;13.74;88.63;102161.34;5030025;28;20573;-75
2022/07/12 03:10:22;;;;;;;1.30;1.08;;;;;;;13.70;88.48;102172.22;5038872;28;20413;-75
2022/07/12 03:12:48;;;;;;;2.75;1.45;;;;;;;13.64;88.65;102171.00;5046580;28;20067;-75
2022/07/12 03:15:13;;;;;;;2.78;1.88;;;;;;;13.62;88.77;102165.13;5042940;28;20029;-75
2022/07/12 03:17:39;;;;;;;2.58;1.83;;;;;;;13.63;88.59;102175.38;5065485;28;20067;-74
2022/07/12 03:20:07;;;;;;;2.25;1.42;;;;;;;13.67;88.44;102169.91;5029150;28;20029;-74
2022/07/12 03:22:33;;;;;;;1.75;1.38;;;;;;;13.67;88.31;102168.09;5044066;28;20033;-74
2022/07/12 03:24:58;;;;;;;6.35;1.60;;;;;;;13.68;88.06;102155.91;5062471;28;20047;-75
2022/07/12 03:27:25;;;;;;;2.97;1.83;;;;;;;13.66;87.90;102156.06;5061664;28;20037;-76
2022/07/12 03:29:50;;;;;;;5.53;2.17;;;;;;;13.59;88.61;102154.97;5041935;28;20115;-75
2022/07/12 03:32:16;;;;;;;4.03;1.90;;;;;;;13.52;89.02;102161.72;5062549;28;20095;-75
2022/07/12 03:34:41;;;;;;;2.67;1.50;;;;;;;13.49;89.22;102162.00;5043755;28;20081;-75
2022/07/12 03:37:07;;;;;;;6.35;1.65;;;;;;;13.43;89.36;102166.81;5041807;28;20029;-73
2022/07/12 03:39:32;;;;;;;5.03;1.55;;;;;;;13.36;89.14;102164.94;5065611;28;20420;-74
2022/07/12 03:41:58;;;;;;;3.25;1.33;;;;;;;13.25;89.29;102166.69;5043402;28;20020;-75
2022/07/12 03:44:23;;;;;;;2.47;1.60;;;;;;;13.19;89.64;102163.84;5044835;28;20747;-74
2022/07/12 03:46:49;;;;;;;4.82;1.80;;;;;;;13.17;89.82;102163.16;5029465;28;20028;-75
2022/07/12 03:49:15;;;;;;;13.13;2.88;;;;;;;13.20;89.74;102168.91;5030600;28;20473;-75
2022/07/12 03:51:41;;;;;;;3.75;1.80;;;;;;;13.24;89.39;102172.03;5059539;28;20111;-74
2022/07/12 03:54:10;;;;;;;2.60;1.65;;;;;;;13.27;89.17;102176.16;5063718;28;20032;-74
2022/07/12 03:59:20;;;;;;;2.55;1.73;;;;;;;13.21;89.18;102172.31;5060907;28;20033;-75
2022/07/12 04:01:45;;;;;;;3.40;1.77;;;;;;;13.20;89.14;102174.13;5048762;28;20032;-75
2022/07/12 04:04:11;;;;;;;4.00;1.38;;;;;;;13.22;89.09;102177.41;5060458;28;20037;-74
2022/07/12 04:06:36;;;;;;;2.65;1.55;;;;;;;13.29;89.04;102180.25;5043536;28;20162;-73
2022/07/12 04:09:02;;;;;;;5.90;1.75;;;;;;;13.33;88.73;102175.63;5046577;28;20032;-75
2022/07/12 04:11:28;;;;;;;3.10;1.90;;;;;;;13.36;88.64;102176.16;5060971;28;20028;-75
2022/07/12 04:13:53;;;;;;;5.15;2.20;;;;;;;13.36;89.20;102164.94;5061547;28;20036;-75
2022/07/12 04:16:19;;;;;;;2.58;1.63;;;;;;;13.29;90.12;102172.44;5061184;28;20032;-75
2022/07/12 04:18:44;;;;;;;3.45;1.80;;;;;;;13.27;90.70;102178.75;5063026;28;21078;-74
2022/07/12 04:21:10;;;;;;;3.30;2.08;;;;;;;13.25;90.71;102186.72;5038982;28;20044;-75
2022/07/12 04:23:35;;;;;;;4.55;1.95;;;;;;;13.25;90.74;102191.91;5045046;28;20032;-74
2022/07/12 04:26:01;;;;;;;2.78;1.60;;;;;;;13.20;90.66;102196.72;5042268;28;20044;-74
2022/07/12 04:28:26;;;;;;;4.38;1.90;;;;;;;13.16;90.75;102200.56;5042009;28;20041;-75
2022/07/12 04:30:52;;;;;;;7.43;1.95;;;;;;;13.15;90.92;102196.34;5049116;28;20028;-80
2022/07/12 04:33:17;;;;;;;3.03;1.75;;;;;;;13.18;90.98;102199.44;5048123;28;20400;-74
2022/07/12 04:35:43;;;;;;;2.95;1.80;;;;;;;13.22;91.06;102198.25;5047384;28;20029;-75
2022/07/12 04:38:08;;;;;;;4.25;1.92;;;;;;;13.27;91.28;102194.38;5046519;28;20033;-74
2022/07/12 04:40:34;;;;;;;5.18;1.98;;;;;;;13.31;91.44;102190.56;5027842;28;20106;-76
2022/07/12 04:42:59;;;;;;;4.20;1.90;;;;;;;13.35;91.63;102190.13;5044257;28;20036;-74
2022/07/12 04:45:25;;;;;;;4.07;1.90;;;;;;;13.41;92.16;102193.97;5022954;28;20064;-74
2022/07/12 04:47:50;;;;;;;3.05;1.92;;;;;;;13.48;92.51;102187.22;5062194;28;20047;-75
2022/07/12 04:50:16;;;;;;;5.47;2.97;;;;;;;13.56;93.50;102189.97;5042975;28;20043;-75
2022/07/12 04:52:41;;;;;;;4.60;2.55;;;;;;;13.57;94.36;102193.38;5047811;28;20032;-74
2022/07/12 04:55:07;;;;;;;4.22;2.40;;;;;;;13.59;94.46;102188.84;5050859;28;20025;-75
2022/07/12 04:57:33;;;;;;;4.40;2.50;;;;;;;13.63;94.14;102185.81;5058938;28;20109;-75
2022/07/12 04:59:58;;;;;;;4.07;2.25;;;;;;;13.70;94.00;102187.88;5046524;28;20529;-75
2022/07/12 05:02:24;;;;;;;5.70;2.88;;;;;;;13.78;93.82;102201.00;5044384;28;20036;-75
2022/07/12 05:04:49;;;;;;;4.50;2.28;;;;;;;13.83;93.73;102197.00;5044852;28;20029;-75
2022/07/12 05:07:15;;;;;;;2.80;2.15;;;;;;;13.93;93.60;102201.34;5050950;28;20032;-75
2022/07/12 05:09:40;;;;;;;3.63;2.30;;;;;;;14.02;94.16;102195.28;5044623;28;20036;-75
2022/07/12 05:12:06;;;;;;;4.60;3.00;;;;;;;14.06;94.85;102203.63;5047612;28;20033;-75
2022/07/12 05:14:32;;;;;;;5.00;2.83;;;;;;;14.12;95.20;102193.41;5047049;28;20036;-75
2022/07/12 05:16:57;;;;;;;3.45;2.63;;;;;;;14.30;95.17;102187.44;5046710;28;20071;-75
2022/07/12 05:19:23;;;;;;;3.88;2.72;;;;;;;14.34;95.35;102180.97;5067809;28;20036;-74
2022/07/12 05:21:49;;;;;;;5.38;3.13;;;;;;;14.40;95.73;102177.75;5067070;28;20036;-75
2022/07/12 05:24:14;;;;;;;5.35;3.10;;;;;;;14.51;95.93;102185.38;5032420;28;20047;-75
2022/07/12 05:26:41;;;;;;;3.25;2.67;;;;;;;14.63;96.22;102183.38;5064168;28;20035;-75
2022/07/12 05:29:06;;;;;;;4.40;3.00;;;;;;;14.78;96.29;102184.50;5067357;28;20082;-74
2022/07/12 05:31:32;;;;;;;5.05;2.97;;;;;;;14.93;96.11;102182.16;5063574;28;20040;-74
2022/07/12 05:33:57;;;;;;;7.57;3.78;;;;;;;15.13;95.58;102192.47;5046323;28;20020;-74
2022/07/12 05:36:23;;;;;;;6.72;4.15;;;;;;;15.28;94.93;102198.78;5039959;28;20425;-74
2022/07/12 05:38:49;;;;;;;7.85;4.63;;;;;;;15.48;94.41;102193.31;5064470;28;20035;-74
2022/07/12 05:41:15;;;;;;;6.28;4.45;;;;;;;15.80;92.61;102191.88;5044610;28;20020;-75
2022/07/12 05:43:40;;;;;;;5.97;4.55;;;;;;;15.92;92.19;102193.25;5044175;28;20036;-74
2022/07/12 05:46:06;;;;;;;9.73;4.88;;;;;;;16.07;91.72;102186.44;5047938;28;20081;-73
2022/07/12 05:48:31;;;;;;;9.23;4.70;;;;;;;16.27;90.52;102184.34;5063695;28;20580;-73
2022/07/12 05:53:21;;;;;;;11.07;6.07;;;;;;;16.44;89.17;102182.59;5064113;28;20434;-73
2022/07/12 05:53:45;;;;;;;9.27;4.75;;;;;;;16.78;87.63;102176.41;5066216;28;20431;-73
2022/07/12 05:56:11;;;;;;;8.23;4.78;;;;;;;16.93;86.82;102180.06;5061991;28;20090;-72
2022/07/12 05:58:36;;;;;;;9.57;5.57;;;;;;;17.22;85.10;102175.28;5043960;28;20039;-72
2022/07/12 06:01:02;;;;;;;18.67;6.35;;;;;;;17.40;84.79;102182.94;5061871;28;20063;-72
2022/07/12 06:03:27;;;;;;;12.88;4.78;;;;;;;17.50;83.18;102183.56;5045551;28;20056;-73
2022/07/12 06:05:53;;;;;;;8.85;4.93;;;;;;;17.82;81.80;102187.88;5028911;28;20036;-72
2022/07/12 06:08:19;;;;;;;7.10;4.60;;;;;;;18.18;80.65;102192.66;5043183;28;20017;-73
2022/07/12 06:10:44;;;;;;;7.85;4.10;;;;;;;18.45;79.97;102201.03;5062514;28;20043;-73
2022/07/12 06:13:10;;;;;;;9.20;4.00;;;;;;;18.73;79.38;102213.66;5064151;28;20085;-73
2022/07/12 06:15:36;;;;;;;6.10;4.13;;;;;;;19.10;78.30;102218.13;5042367;28;20033;-73
2022/07/12 06:18:02;;;;;;;6.47;3.40;;;;;;;19.44;76.81;102222.09;5043604;28;20041;-73
2022/07/12 06:20:28;;;;;;;5.30;3.70;;;;;;;19.76;75.35;102215.66;5039706;28;20029;-73
2022/07/12 06:22:53;;;;;;;5.88;3.80;;;;;;;20.05;73.88;102227.16;5045490;28;20028;-73
2022/07/12 06:25:19;;;;;;;8.27;3.60;;;;;;;20.32;70.66;102228.25;5030384;28;20078;-73
2022/07/12 06:27:45;;;;;;;8.93;3.88;;;;;;;20.55;71.45;102233.38;5061737;28;20032;-73
2022/07/12 06:30:11;;;;;;;8.13;3.85;;;;;;;20.80;70.52;102236.47;5063909;28;20032;-74
2022/07/12 06:32:36;;;;;;;7.70;2.75;;;;;;;21.16;70.33;102235.53;5040428;28;20029;-73
2022/07/12 06:35:02;;;;;;;11.68;4.35;;;;;;;21.50;68.95;102241.06;5041778;28;20044;-73
2022/07/12 06:37:27;;;;;;;7.75;3.03;;;;;;;21.86;68.00;102234.75;5045604;28;20051;-73
2022/07/12 06:39:53;;;;;;;5.57;3.53;;;;;;;22.14;66.11;102242.59;5027826;28;20679;-73
2022/07/12 06:42:18;;;;;;;9.57;2.78;;;;;;;22.19;66.32;102242.81;5026819;28;20028;-73
2022/07/12 06:44:52;;;;;;;8.52;4.30;;;;;;;22.20;64.77;102235.69;5030746;28;20040;-73
2022/07/12 06:47:18;;;;;;;6.78;3.58;;;;;;;22.32;64.63;102236.75;5044901;28;20032;-73
2022/07/12 06:49:43;;;;;;;8.07;3.55;;;;;;;22.37;64.12;102239.63;5063027;28;20028;-73
2022/07/12 06:52:08;;;;;;;7.47;2.92;;;;;;;22.73;63.61;102236.66;5063586;28;20452;-73
2022/07/12 06:54:34;;;;;;;10.55;4.15;;;;;;;23.13;61.14;102247.25;5065599;28;20063;-72
2022/07/12 06:56:59;;;;;;;8.43;3.65;;;;;;;23.47;61.16;102241.88;5061807;28;20044;-73
2022/07/12 06:59:25;;;;;;;10.60;3.78;;;;;;;23.69;59.04;102237.16;5064527;28;20016;-73
2022/07/12 07:01:52;;;;;;;8.15;4.82;;;;;;;23.48;57.63;102241.69;5061454;28;20032;-74
2022/07/12 07:04:17;;;;;;;8.35;3.88;;;;;;;23.68;57.26;102238.19;5045899;28;20615;-74
2022/07/12 07:06:43;;;;;;;5.65;3.28;;;;;;;23.46;57.08;102248.22;5060007;28;20119;-74
2022/07/12 07:09:08;;;;;;;5.38;3.10;;;;;;;23.74;57.84;102239.19;5044153;28;20176;-73
2022/07/12 07:11:35;;;;;;;5.95;3.20;;;;;;;24.19;55.82;102234.72;5045952;28;20036;-75
2022/07/12 07:14:00;;;;;;;9.00;4.13;;;;;;;24.32;55.27;102233.00;5060455;28;20059;-75
2022/07/12 07:16:26;;;;;;;6.63;3.70;;;;;;;24.41;54.75;102229.06;5043761;28;20528;-74
2022/07/12 07:18:52;;;;;;;7.78;2.80;;;;;;;24.63;54.67;102237.53;5063014;28;20024;-72
2022/07/12 07:21:18;;;;;;;11.07;3.28;;;;;;;24.99;54.53;102242.13;5047342;28;20028;-73
2022/07/12 07:23:43;;;;;;;4.40;3.10;;;;;;;25.15;53.79;102243.41;5062718;28;20728;-73
2022/07/12 07:26:09;;;;;;;8.02;2.95;;;;;;;25.54;53.11;102243.25;5063099;28;20032;-73
2022/07/12 07:30:51;;;;;;;4.93;3.20;;;;;;;25.89;52.18;102246.09;5061743;28;20154;-74
2022/07/12 07:31:20;;;;;;;5.38;2.38;;;;;;;26.29;50.97;102231.47;5060256;28;20120;-74
2022/07/12 07:33:46;;;;;;;10.60;3.45;;;;;;;26.13;49.73;102236.41;5041376;28;20078;-75
2022/07/12 07:36:11;;;;;;;5.15;3.25;;;;;;;25.93;49.92;102241.97;5061186;28;20033;-74
2022/07/12 07:38:37;;;;;;;7.72;3.10;;;;;;;25.72;50.03;102245.09;5060000;28;20040;-76
2022/07/12 07:41:02;;;;;;;8.90;4.80;;;;;;;25.66;50.31;102240.69;5027401;28;20123;-74
2022/07/12 07:43:28;;;;;;;7.93;4.53;;;;;;;25.73;50.86;102242.22;5045424;28;20036;-74
2022/07/12 07:45:53;;;;;;;6.38;3.38;;;;;;;26.02;50.92;102232.66;5061716;28;20033;-74
2022/07/12 07:48:19;;;;;;;8.25;3.97;;;;;;;26.12;50.61;102241.94;5061744;28;20035;-73
2022/07/12 07:50:44;;;;;;;10.05;4.53;;;;;;;26.33;49.90;102240.63;5064449;28;20028;-73
2022/07/12 07:53:10;;;;;;;10.13;3.78;;;;;;;26.84;48.22;102235.75;5044925;28;20737;-74
2022/07/12 07:55:35;;;;;;;5.45;2.92;;;;;;;27.16;48.55;102238.88;5045331;28;20170;-74
2022/07/12 07:58:01;;;;;;;6.32;4.10;;;;;;;27.43;48.46;102231.25;5043957;28;20044;-74
2022/07/12 08:00:27;;;;;;;7.38;4.60;;;;;;;27.51;48.02;102236.19;5044579;28;20028;-74
2022/07/12 08:02:57;;;;;;;11.90;5.95;;;;;;;27.57;46.64;102234.44;5038206;28;20450;-75
2022/07/12 08:05:23;;;;;;;10.65;7.00;;;;;;;27.82;46.24;102225.34;5044554;28;20431;-74
2022/07/12 08:07:48;;;;;;;11.30;7.85;;;;;;;27.77;45.27;102226.84;5060011;28;20031;-74
2022/07/12 08:10:14;;;;;;;11.07;7.00;;;;;;;27.61;45.92;102234.78;5065876;28;20260;-74
2022/07/12 08:12:39;;;;;;;9.95;5.43;;;;;;;27.80;45.37;102238.09;5047491;28;20612;-74
2022/07/12 08:15:06;;;;;;;10.30;4.65;;;;;;;27.88;46.09;102232.41;5063020;28;20492;-75
2022/07/12 08:17:31;;;;;;;5.82;4.10;;;;;;;28.36;45.07;102225.78;5068358;28;20731;-74
2022/07/12 08:19:57;;;;;;;4.50;3.28;;;;;;;28.58;45.26;102230.44;5071178;28;20104;-75
2022/07/12 08:22:22;;;;;;;9.93;4.85;;;;;;;28.50;45.62;102235.09;5072471;28;20024;-75
2022/07/12 08:24:48;;;;;;;11.30;6.10;;;;;;;28.58;44.77;102236.59;5027849;28;20024;-73
2022/07/12 08:27:14;;;;;;;7.63;4.22;;;;;;;29.04;43.55;102225.78;5064152;28;20016;-74
2022/07/12 08:29:39;;;;;;;6.65;4.05;;;;;;;29.30;42.92;102222.41;5075725;28;20036;-74
2022/07/12 08:32:07;;;;;;;5.97;4.43;;;;;;;29.50;42.42;102221.06;5047926;28;20042;-75
2022/07/12 08:34:33;;;;;;;8.13;3.97;;;;;;;29.64;42.04;102216.94;5068164;28;20040;-74
2022/07/12 08:36:59;;;;;;;12.88;6.22;;;;;;;29.56;41.62;102214.72;5060850;28;20089;-74
2022/07/12 08:39:24;;;;;;;7.35;4.90;;;;;;;29.62;41.49;102210.22;5061345;28;20036;-74
2022/07/12 08:41:50;;;;;;;14.90;6.55;;;;;;;29.47;41.78;102203.66;5056044;28;20036;-74
2022/07/12 08:44:15;;;;;;;5.10;4.05;;;;;;;29.50;42.07;102199.69;5045232;28;20059;-75
2022/07/12 08:46:41;;;;;;;8.05;5.65;;;;;;;29.14;40.79;102198.44;5050058;28;20458;-74
2022/07/12 08:49:09;;;;;;;7.55;5.32;;;;;;;29.02;42.43;102202.00;5049385;28;20036;-78
2022/07/12 08:51:35;;;;;;;6.45;5.75;;;;;;;28.84;42.41;102197.75;5050935;28;20039;-75
2022/07/12 08:54:08;;;;;;;10.10;5.68;;;;;;;28.63;42.71;102199.31;5060239;28;20040;-76
2022/07/12 08:56:39;;;;;;;6.07;5.13;;;;;;;28.31;43.23;102199.03;5045234;28;20029;-74
2022/07/12 08:59:20;;;;;;;10.50;5.18;;;;;;;28.57;42.22;102197.63;5068763;28;20039;-73
2022/07/12 09:01:51;;;;;;;4.95;2.83;;;;;;;28.78;42.41;102192.56;5063097;28;20100;-75
2022/07/12 09:04:21;;;;;;;4.63;3.00;;;;;;;29.00;41.31;102193.41;5047573;28;20029;-75
2022/07/12 09:06:46;;;;;;;4.80;3.08;;;;;;;29.01;41.52;102196.88;5066287;28;20481;-75
2022/07/12 09:09:37;;;;;;;5.07;3.50;;;;;;;29.28;39.34;102199.69;5065250;28;20048;-74
2022/07/12 09:12:03;;;;;;;6.43;3.53;;;;;;;29.39;39.76;102197.94;5051714;28;20036;-75
2022/07/12 09:14:28;;;;;;;5.60;3.53;;;;;;;29.24;41.03;102196.69;5066250;28;20381;-74
2022/07/12 09:17:09;;;;;;;7.10;4.40;;;;;;;29.12;41.16;102203.97;5048618;28;20041;-74
2022/07/12 09:19:34;;;;;;;10.25;4.90;;;;;;;28.91;41.01;102198.41;5060919;28;20532;-76
2022/07/12 09:22:00;;;;;;;6.20;4.20;;;;;;;28.95;41.11;102203.22;5043646;28;20040;-76
2022/07/12 09:24:26;;;;;;;7.82;4.10;;;;;;;29.02;41.99;102204.66;5044479;28;20025;-75
2022/07/12 09:27:10;;;;;;;9.13;4.13;;;;;;;28.95;41.50;102204.03;5045092;28;20811;-74
2022/07/12 09:29:49;;;;;;;6.10;3.47;;;;;;;29.32;41.50;102214.16;5064795;28;20273;-74
2022/07/12 09:37:44;;;;;;;4.90;2.90;;;;;;;29.46;40.53;102207.38;5047390;28;20115;-74
2022/07/12 09:40:10;;;;;;;5.32;3.03;;;;;;;29.36;39.28;102209.13;5066326;28;20161;-74
2022/07/12 09:42:37;;;;;;;8.25;3.30;;;;;;;29.02;40.81;102212.66;5027010;28;20041;-75
2022/07/12 09:45:04;;;;;;;4.45;2.95;;;;;;;29.33;40.12;102215.78;5069212;28;20035;-74
2022/07/12 09:47:30;;;;;;;10.63;3.03;;;;;;;29.34;40.14;102209.38;5058739;28;20040;-75
2022/07/12 09:49:55;;;;;;;7.05;2.70;;;;;;;29.03;40.02;102214.28;5071910;28;20028;-74
2022/07/12 09:52:24;;;;;;;5.32;2.97;;;;;;;29.40;39.16;102220.91;5071174;28;20044;-75
2022/07/12 09:54:52;;;;;;;4.45;3.28;;;;;;;29.35;41.81;102218.19;5046305;28;20554;-74
2022/07/12 09:57:25;;;;;;;6.25;3.45;;;;;;;29.42;40.38;102210.78;5045629;28;20395;-75
2022/07/12 09:59:52;;;;;;;16.42;3.88;;;;;;;29.33;39.10;102214.94;5063073;28;20490;-75
2022/07/12 10:02:19;;;;;;;5.25;3.17;;;;;;;29.48;39.79;102215.16;5042633;28;20082;-76
2022/07/12 10:04:46;;;;;;;5.68;2.90;;;;;;;29.92;38.64;102206.28;5064680;28;20025;-75
2022/07/12 10:07:13;;;;;;;4.40;3.38;;;;;;;29.92;39.12;102207.09;5045057;28;20044;-75
2022/07/12 10:09:40;;;;;;;3.45;2.35;;;;;;;30.04;39.12;102207.72;5059001;28;20085;-75
2022/07/12 10:12:06;;;;;;;3.50;2.05;;;;;;;30.17;38.72;102203.03;5045803;28;20036;-75
2022/07/12 10:14:32;;;;;;;9.75;1.95;;;;;;;30.39;39.10;102205.66;5063253;28;20028;-74
2022/07/12 10:16:58;;;;;;;5.78;2.38;;;;;;;30.46;37.70;102204.38;5043237;28;20048;-74
2022/07/12 10:19:31;;;;;;;4.63;2.47;;;;;;;30.27;37.91;102195.91;5067184;28;20532;-74
2022/07/12 10:21:57;;;;;;;;;;;;;;;30.41;37.35;102201.66;5062894;28;20505;-75
2022/07/12 10:24:32;;;;;;;2.95;2.40;;;;;;;30.28;36.31;102194.84;5042343;28;19915;-77
2022/07/12 10:27:19;;;;;;;2.50;2.10;;;;;;;29.95;38.15;102195.06;5044542;28;20120;-76
2022/07/12 10:29:47;;;;;;;4.32;2.47;;;;;;;30.11;36.79;102202.19;5035458;28;20072;-77
2022/07/12 10:32:26;;;;;;;2.90;2.00;;;;;;;30.00;37.65;102193.25;5039400;28;20040;-75
2022/07/12 10:35:05;;;;;;;3.33;2.00;;;;;;;30.11;36.29;102188.81;5041217;28;20054;-74
2022/07/12 10:37:30;;;;;;;6.25;2.60;;;;;;;29.60;37.85;102193.66;5045727;28;20028;-74
2022/07/12 10:40:19;;;;;;;4.68;2.28;;;;;;;29.93;37.56;102200.66;5046170;28;20677;-75
2022/07/12 10:43:00;;;;;;;2.80;1.85;;;;;;;30.19;37.99;102187.53;5064822;28;20124;-75
2022/07/12 10:45:29;;;;;;;2.42;1.75;;;;;;;30.13;36.57;102183.22;5039419;28;20401;-75
2022/07/12 10:48:01;;;;;;;4.97;1.90;;;;;;;30.11;37.05;102177.31;5045056;28;20035;-76
2022/07/12 10:50:45;;;;;;;3.05;2.22;;;;;;;30.14;35.81;102184.81;5032202;28;20040;-75
2022/07/12 10:53:20;;;;;;;3.00;1.33;;;;;;;30.28;35.27;102189.47;5048720;28;20040;-74
2022/07/12 10:56:04;;;;;;;2.63;1.60;;;;;;;30.66;35.69;102190.31;5071187;28;20036;-75
2022/07/12 10:58:34;;;;;;;1.40;1.30;;;;;;;30.81;35.30;102184.25;5062836;28;20037;-76
2022/07/12 11:01:05;;;;;;;2.60;1.38;;;;;;;30.89;35.58;102182.13;5066368;28;20083;-75
2022/07/12 11:03:41;;;;;;;2.78;2.08;;;;;;;30.85;35.04;102182.69;5065707;28;20040;-74
2022/07/12 11:06:08;;;;;;;1.73;1.50;;;;;;;30.99;35.95;102192.94;5053705;28;20048;-75
2022/07/12 11:08:52;;;;;;;3.38;2.03;;;;;;;31.28;35.70;102184.47;5047250;28;20124;-75
2022/07/12 11:11:19;;;;;;;2.85;2.22;;;;;;;31.19;35.90;102187.69;5041562;28;20127;-75
2022/07/12 11:13:44;;;;;;;1.77;1.20;;;;;;;31.16;35.16;102184.72;5063983;28;20040;-75
2022/07/12 11:16:10;;;;;;;5.25;2.15;;;;;;;31.24;34.19;102178.84;5055699;28;20763;-74
2022/07/12 11:18:37;;;;;;;3.00;1.98;;;;;;;31.53;35.17;102175.72;5043981;28;20033;-74
2022/07/12 11:21:03;;;;;;;4.28;1.70;;;;;;;31.31;34.98;102173.25;5042029;28;20062;-74
2022/07/12 11:23:29;;;;;;;4.72;2.15;;;;;;;31.23;36.39;102166.50;5068178;28;20532;-75
2022/07/12 11:25:57;;;;;;;4.50;2.05;;;;;;;31.28;36.47;102163.84;5045323;28;20653;-75
2022/07/12 11:28:30;;;;;;;1.50;1.40;;;;;;;31.47;34.38;102168.75;5059444;28;20028;-74
2022/07/12 11:31:07;;;;;;;3.58;1.67;;;;;;;31.34;34.44;102170.03;5059726;28;20036;-74